sensor_id;sensor_type;location;lat;lon;timestamp;temperature;humidity
15217;DHT22;7711;46.634;14.318;2023-12-14T00:00:09;1.10;99.90
15217;DHT22;7711;46.634;14.318;2023-12-14T00:02:36;1.10;99.90
15217;DHT22;7711;46.634;14.318;2023-12-14T00:05:06;1.10;99.90
15217;DHT22;7711;46.634;14.318;2023-12-14T00:07:33;1.10;99.90
15217;DHT22;7711;46.634;14.318;2023-12-14T00:10:00;1.10;99.90
15217;DHT22;7711;46.634;14.318;2023-12-14T00:12:28;1.10;99.90
15217;DHT22;7711;46.634;14.318;2023-12-14T00:14:55;1.10;99.90
15217;DHT22;7711;46.634;14.318;2023-12-14T00:17:22;1.10;99.90
15217;DHT22;7711;46.634;14.318;2023-12-14T00:19:49;1.00;99.90
15217;DHT22;7711;46.634;14.318;2023-12-14T00:22:18;1.10;99.90
15217;DHT22;7711;46.634;14.318;2023-12-14T00:24:45;1.10;99.90
15217;DHT22;7711;46.634;14.318;2023-12-14T00:27:12;1.10;99.90
15217;DHT22;7711;46.634;14.318;2023-12-14T00:29:39;1.10;99.90
15217;DHT22;7711;46.634;14.318;2023-12-14T00:32:06;1.00;99.90
15217;DHT22;7711;46.634;14.318;2023-12-14T00:34:33;1.10;99.90
15217;DHT22;7711;46.634;14.318;2023-12-14T00:37:01;1.10;99.90
15217;DHT22;7711;46.634;14.318;2023-12-14T00:39:29;1.10;99.90
15217;DHT22;7711;46.634;14.318;2023-12-14T00:41:56;1.10;99.90
15217;DHT22;7711;46.634;14.318;2023-12-14T00:44:23;1.10;99.90
15217;DHT22;7711;46.634;14.318;2023-12-14T00:46:50;1.00;99.90
15217;DHT22;7711;46.634;14.318;2023-12-14T00:49:17;1.10;99.90
15217;DHT22;7711;46.634;14.318;2023-12-14T00:51:45;1.10;99.90
15217;DHT22;7711;46.634;14.318;2023-12-14T00:54:12;1.10;99.90
15217;DHT22;7711;46.634;14.318;2023-12-14T00:56:40;1.10;99.90
15217;DHT22;7711;46.634;14.318;2023-12-14T00:59:07;1.10;99.90
15217;DHT22;7711;46.634;14.318;2023-12-14T01:01:34;1.10;99.90
15217;DHT22;7711;46.634;14.318;2023-12-14T01:04:01;1.00;99.90
15217;DHT22;7711;46.634;14.318;2023-12-14T01:06:28;1.10;99.90
15217;DHT22;7711;46.634;14.318;2023-12-14T01:08:55;1.00;99.90
15217;DHT22;7711;46.634;14.318;2023-12-14T01:11:22;1.00;99.90
15217;DHT22;7711;46.634;14.318;2023-12-14T01:13:50;1.00;99.90
15217;DHT22;7711;46.634;14.318;2023-12-14T01:16:17;1.00;99.90
15217;DHT22;7711;46.634;14.318;2023-12-14T01:18:44;1.00;99.90
15217;DHT22;7711;46.634;14.318;2023-12-14T01:21:11;1.00;99.90
15217;DHT22;7711;46.634;14.318;2023-12-14T01:23:38;1.00;99.90
15217;DHT22;7711;46.634;14.318;2023-12-14T01:26:05;1.00;99.90
15217;DHT22;7711;46.634;14.318;2023-12-14T01:28:32;1.00;99.90
15217;DHT22;7711;46.634;14.318;2023-12-14T01:31:01;1.00;99.90
15217;DHT22;7711;46.634;14.318;2023-12-14T01:33:28;1.00;99.90
15217;DHT22;7711;46.634;14.318;2023-12-14T01:35:55;1.00;99.90
15217;DHT22;7711;46.634;14.318;2023-12-14T01:38:22;1.10;99.90
15217;DHT22;7711;46.634;14.318;2023-12-14T01:40:49;1.10;99.90
15217;DHT22;7711;46.634;14.318;2023-12-14T01:43:16;1.00;99.90
15217;DHT22;7711;46.634;14.318;2023-12-14T01:45:43;1.10;99.90
15217;DHT22;7711;46.634;14.318;2023-12-14T01:48:12;1.10;99.90
15217;DHT22;7711;46.634;14.318;2023-12-14T01:50:39;1.10;99.90
15217;DHT22;7711;46.634;14.318;2023-12-14T01:53:06;1.10;99.90
15217;DHT22;7711;46.634;14.318;2023-12-14T01:55:33;1.10;99.90
15217;DHT22;7711;46.634;14.318;2023-12-14T01:58:00;1.10;99.90
15217;DHT22;7711;46.634;14.318;2023-12-14T02:00:34;1.10;99.90
15217;DHT22;7711;46.634;14.318;2023-12-14T02:03:03;1.10;99.90
15217;DHT22;7711;46.634;14.318;2023-12-14T02:05:32;1.10;99.90
15217;DHT22;7711;46.634;14.318;2023-12-14T02:07:59;1.10;99.90
15217;DHT22;7711;46.634;14.318;2023-12-14T02:10:26;1.10;99.90
15217;DHT22;7711;46.634;14.318;2023-12-14T02:12:53;1.10;99.90
15217;DHT22;7711;46.634;14.318;2023-12-14T02:15:20;1.10;99.90
15217;DHT22;7711;46.634;14.318;2023-12-14T02:17:47;1.20;99.90
15217;DHT22;7711;46.634;14.318;2023-12-14T02:20:14;1.20;99.90
15217;DHT22;7711;46.634;14.318;2023-12-14T02:22:52;1.10;99.90
15217;DHT22;7711;46.634;14.318;2023-12-14T02:25:20;1.20;99.90
15217;DHT22;7711;46.634;14.318;2023-12-14T02:27:47;1.20;99.90
15217;DHT22;7711;46.634;14.318;2023-12-14T02:30:15;1.20;99.90
15217;DHT22;7711;46.634;14.318;2023-12-14T02:32:42;1.20;99.90
15217;DHT22;7711;46.634;14.318;2023-12-14T02:35:09;1.20;99.90
15217;DHT22;7711;46.634;14.318;2023-12-14T02:37:36;1.20;99.90
15217;DHT22;7711;46.634;14.318;2023-12-14T02:40:08;1.20;99.90
15217;DHT22;7711;46.634;14.318;2023-12-14T02:42:35;1.10;99.90
15217;DHT22;7711;46.634;14.318;2023-12-14T02:45:03;1.10;99.90
15217;DHT22;7711;46.634;14.318;2023-12-14T02:47:31;1.10;99.90
15217;DHT22;7711;46.634;14.318;2023-12-14T02:49:58;1.10;99.90
15217;DHT22;7711;46.634;14.318;2023-12-14T02:52:25;1.10;99.90
15217;DHT22;7711;46.634;14.318;2023-12-14T02:54:52;1.10;99.90
15217;DHT22;7711;46.634;14.318;2023-12-14T02:57:20;1.10;99.90
15217;DHT22;7711;46.634;14.318;2023-12-14T02:59:47;1.10;97.20
15217;DHT22;7711;46.634;14.318;2023-12-14T03:02:15;1.10;74.40
15217;DHT22;7711;46.634;14.318;2023-12-14T03:04:42;1.10;51.50
15217;DHT22;7711;46.634;14.318;2023-12-14T03:07:09;1.10;50.30
15217;DHT22;7711;46.634;14.318;2023-12-14T03:09:39;1.10;25.20
15217;DHT22;7711;46.634;14.318;2023-12-14T03:12:07;1.10;14.30
15217;DHT22;7711;46.634;14.318;2023-12-14T03:14:35;1.10;22.10
15217;DHT22;7711;46.634;14.318;2023-12-14T03:17:02;1.10;47.50
15217;DHT22;7711;46.634;14.318;2023-12-14T03:19:31;1.10;57.20
15217;DHT22;7711;46.634;14.318;2023-12-14T03:21:59;1.00;41.70
15217;DHT22;7711;46.634;14.318;2023-12-14T03:24:26;1.00;76.30
15217;DHT22;7711;46.634;14.318;2023-12-14T03:26:53;1.00;92.80
15217;DHT22;7711;46.634;14.318;2023-12-14T03:29:20;1.00;99.90
15217;DHT22;7711;46.634;14.318;2023-12-14T03:31:48;1.00;99.90
15217;DHT22;7711;46.634;14.318;2023-12-14T03:34:17;1.10;99.90
15217;DHT22;7711;46.634;14.318;2023-12-14T03:36:44;1.10;99.90
15217;DHT22;7711;46.634;14.318;2023-12-14T03:39:11;1.10;99.90
15217;DHT22;7711;46.634;14.318;2023-12-14T03:41:38;1.10;99.90
15217;DHT22;7711;46.634;14.318;2023-12-14T03:44:04;1.10;99.90
15217;DHT22;7711;46.634;14.318;2023-12-14T03:46:32;1.10;99.90
15217;DHT22;7711;46.634;14.318;2023-12-14T03:49:01;1.10;99.90
15217;DHT22;7711;46.634;14.318;2023-12-14T03:51:28;1.10;99.90
15217;DHT22;7711;46.634;14.318;2023-12-14T03:53:55;1.10;99.90
15217;DHT22;7711;46.634;14.318;2023-12-14T03:56:22;1.10;99.90
15217;DHT22;7711;46.634;14.318;2023-12-14T03:58:49;1.20;99.90
15217;DHT22;7711;46.634;14.318;2023-12-14T04:01:17;1.20;99.90
15217;DHT22;7711;46.634;14.318;2023-12-14T04:03:44;1.10;99.90
15217;DHT22;7711;46.634;14.318;2023-12-14T04:06:13;1.10;99.90
15217;DHT22;7711;46.634;14.318;2023-12-14T04:08:40;1.10;99.90
15217;DHT22;7711;46.634;14.318;2023-12-14T04:11:07;1.10;99.90
15217;DHT22;7711;46.634;14.318;2023-12-14T04:13:34;1.10;99.90
15217;DHT22;7711;46.634;14.318;2023-12-14T04:16:02;1.10;99.90
15217;DHT22;7711;46.634;14.318;2023-12-14T04:18:29;1.00;99.90
15217;DHT22;7711;46.634;14.318;2023-12-14T04:20:56;1.00;99.90
15217;DHT22;7711;46.634;14.318;2023-12-14T04:23:24;1.00;99.90
15217;DHT22;7711;46.634;14.318;2023-12-14T04:25:52;1.00;99.90
15217;DHT22;7711;46.634;14.318;2023-12-14T04:28:19;1.10;99.90
15217;DHT22;7711;46.634;14.318;2023-12-14T04:30:46;1.10;99.90
15217;DHT22;7711;46.634;14.318;2023-12-14T04:33:13;1.00;99.90
15217;DHT22;7711;46.634;14.318;2023-12-14T04:35:40;0.90;99.90
15217;DHT22;7711;46.634;14.318;2023-12-14T04:38:07;0.90;99.90
15217;DHT22;7711;46.634;14.318;2023-12-14T04:40:36;0.90;99.90
15217;DHT22;7711;46.634;14.318;2023-12-14T04:43:03;0.90;99.90
15217;DHT22;7711;46.634;14.318;2023-12-14T04:45:30;0.90;99.90
15217;DHT22;7711;46.634;14.318;2023-12-14T04:47:57;0.90;99.90
15217;DHT22;7711;46.634;14.318;2023-12-14T04:50:23;0.90;99.90
15217;DHT22;7711;46.634;14.318;2023-12-14T04:52:50;0.90;99.90
15217;DHT22;7711;46.634;14.318;2023-12-14T04:55:17;0.90;99.90
15217;DHT22;7711;46.634;14.318;2023-12-14T04:57:46;0.90;99.90
15217;DHT22;7711;46.634;14.318;2023-12-14T05:00:15;0.90;99.90
15217;DHT22;7711;46.634;14.318;2023-12-14T05:02:46;0.90;99.90
15217;DHT22;7711;46.634;14.318;2023-12-14T05:05:14;0.90;99.90
15217;DHT22;7711;46.634;14.318;2023-12-14T05:07:40;0.90;99.90
15217;DHT22;7711;46.634;14.318;2023-12-14T05:10:08;1.00;99.90
15217;DHT22;7711;46.634;14.318;2023-12-14T05:12:36;0.90;99.90
15217;DHT22;7711;46.634;14.318;2023-12-14T05:15:04;0.90;99.90
15217;DHT22;7711;46.634;14.318;2023-12-14T05:17:31;0.90;99.90
15217;DHT22;7711;46.634;14.318;2023-12-14T05:19:58;1.00;99.90
15217;DHT22;7711;46.634;14.318;2023-12-14T05:22:25;1.00;99.90
15217;DHT22;7711;46.634;14.318;2023-12-14T05:24:53;1.00;99.90
15217;DHT22;7711;46.634;14.318;2023-12-14T05:27:20;1.00;99.90
15217;DHT22;7711;46.634;14.318;2023-12-14T05:29:47;1.00;99.90
15217;DHT22;7711;46.634;14.318;2023-12-14T05:32:15;1.00;99.90
15217;DHT22;7711;46.634;14.318;2023-12-14T05:34:42;1.10;99.90
15217;DHT22;7711;46.634;14.318;2023-12-14T05:37:09;1.00;99.90
15217;DHT22;7711;46.634;14.318;2023-12-14T05:39:36;1.10;99.90
15217;DHT22;7711;46.634;14.318;2023-12-14T05:42:03;1.10;99.90
15217;DHT22;7711;46.634;14.318;2023-12-14T05:44:30;1.10;99.90
15217;DHT22;7711;46.634;14.318;2023-12-14T05:46:57;1.10;99.90
15217;DHT22;7711;46.634;14.318;2023-12-14T05:49:25;1.10;99.90
15217;DHT22;7711;46.634;14.318;2023-12-14T05:51:52;1.10;99.90
15217;DHT22;7711;46.634;14.318;2023-12-14T05:54:19;1.10;99.90
15217;DHT22;7711;46.634;14.318;2023-12-14T05:56:47;1.10;99.90
15217;DHT22;7711;46.634;14.318;2023-12-14T05:59:14;1.10;99.90
15217;DHT22;7711;46.634;14.318;2023-12-14T06:01:41;1.10;99.90
15217;DHT22;7711;46.634;14.318;2023-12-14T06:04:08;1.10;99.90
15217;DHT22;7711;46.634;14.318;2023-12-14T06:06:39;1.20;99.90
15217;DHT22;7711;46.634;14.318;2023-12-14T06:09:06;1.10;99.90
15217;DHT22;7711;46.634;14.318;2023-12-14T06:11:34;1.20;99.90
15217;DHT22;7711;46.634;14.318;2023-12-14T06:14:02;1.20;99.90
15217;DHT22;7711;46.634;14.318;2023-12-14T06:16:28;1.20;99.90
15217;DHT22;7711;46.634;14.318;2023-12-14T06:18:55;1.20;99.90
15217;DHT22;7711;46.634;14.318;2023-12-14T06:21:22;1.20;99.90
15217;DHT22;7711;46.634;14.318;2023-12-14T06:23:53;1.20;99.90
15217;DHT22;7711;46.634;14.318;2023-12-14T06:26:20;1.20;99.90
15217;DHT22;7711;46.634;14.318;2023-12-14T06:28:47;1.30;99.90
15217;DHT22;7711;46.634;14.318;2023-12-14T06:31:14;1.20;99.90
15217;DHT22;7711;46.634;14.318;2023-12-14T06:33:41;1.30;99.90
15217;DHT22;7711;46.634;14.318;2023-12-14T06:36:09;1.30;99.90
15217;DHT22;7711;46.634;14.318;2023-12-14T06:38:38;1.30;99.90
15217;DHT22;7711;46.634;14.318;2023-12-14T06:41:07;1.40;99.90
15217;DHT22;7711;46.634;14.318;2023-12-14T06:43:34;1.40;99.90
15217;DHT22;7711;46.634;14.318;2023-12-14T06:46:01;1.40;99.90
15217;DHT22;7711;46.634;14.318;2023-12-14T06:48:28;1.40;99.90
15217;DHT22;7711;46.634;14.318;2023-12-14T06:50:55;1.40;99.90
15217;DHT22;7711;46.634;14.318;2023-12-14T06:53:22;1.50;99.90
15217;DHT22;7711;46.634;14.318;2023-12-14T06:55:49;1.50;99.90
15217;DHT22;7711;46.634;14.318;2023-12-14T06:58:18;1.50;99.90
15217;DHT22;7711;46.634;14.318;2023-12-14T07:00:45;1.50;81.80
15217;DHT22;7711;46.634;14.318;2023-12-14T07:03:13;1.50;99.90
15217;DHT22;7711;46.634;14.318;2023-12-14T07:05:40;1.50;99.90
15217;DHT22;7711;46.634;14.318;2023-12-14T07:08:07;1.50;99.90
15217;DHT22;7711;46.634;14.318;2023-12-14T07:10:34;1.50;79.90
15217;DHT22;7711;46.634;14.318;2023-12-14T07:13:01;1.40;23.10
15217;DHT22;7711;46.634;14.318;2023-12-14T07:15:29;1.50;21.20
15217;DHT22;7711;46.634;14.318;2023-12-14T07:17:56;1.40;27.20
15217;DHT22;7711;46.634;14.318;2023-12-14T07:20:23;1.50;62.50
15217;DHT22;7711;46.634;14.318;2023-12-14T07:22:50;1.50;72.40
15217;DHT22;7711;46.634;14.318;2023-12-14T07:25:17;1.50;41.80
15217;DHT22;7711;46.634;14.318;2023-12-14T07:27:44;1.50;1.00
15217;DHT22;7711;46.634;14.318;2023-12-14T07:30:12;1.50;1.00
15217;DHT22;7711;46.634;14.318;2023-12-14T07:32:41;1.50;1.00
15217;DHT22;7711;46.634;14.318;2023-12-14T07:35:08;1.50;1.00
15217;DHT22;7711;46.634;14.318;2023-12-14T07:37:36;1.50;1.00
15217;DHT22;7711;46.634;14.318;2023-12-14T07:40:03;1.60;1.00
15217;DHT22;7711;46.634;14.318;2023-12-14T07:42:31;1.60;1.00
15217;DHT22;7711;46.634;14.318;2023-12-14T07:44:57;1.60;1.00
15217;DHT22;7711;46.634;14.318;2023-12-14T07:47:25;1.60;1.00
15217;DHT22;7711;46.634;14.318;2023-12-14T07:49:53;1.70;1.00
15217;DHT22;7711;46.634;14.318;2023-12-14T07:52:20;1.70;1.00
15217;DHT22;7711;46.634;14.318;2023-12-14T07:54:47;1.80;1.00
15217;DHT22;7711;46.634;14.318;2023-12-14T07:57:14;1.80;1.00
15217;DHT22;7711;46.634;14.318;2023-12-14T07:59:41;1.80;1.00
15217;DHT22;7711;46.634;14.318;2023-12-14T08:02:08;1.80;1.00
15217;DHT22;7711;46.634;14.318;2023-12-14T08:04:35;1.80;1.00
15217;DHT22;7711;46.634;14.318;2023-12-14T08:07:04;1.80;1.00
15217;DHT22;7711;46.634;14.318;2023-12-14T08:09:32;1.90;1.00
15217;DHT22;7711;46.634;14.318;2023-12-14T08:11:59;1.90;1.00
15217;DHT22;7711;46.634;14.318;2023-12-14T08:14:26;1.90;99.90
15217;DHT22;7711;46.634;14.318;2023-12-14T08:16:53;1.90;99.90
15217;DHT22;7711;46.634;14.318;2023-12-14T08:19:20;2.00;99.90
15217;DHT22;7711;46.634;14.318;2023-12-14T08:21:47;2.00;99.90
15217;DHT22;7711;46.634;14.318;2023-12-14T08:24:15;1.90;99.90
15217;DHT22;7711;46.634;14.318;2023-12-14T08:26:42;1.90;99.90
15217;DHT22;7711;46.634;14.318;2023-12-14T08:29:09;1.90;99.90
15217;DHT22;7711;46.634;14.318;2023-12-14T08:31:36;1.90;99.90
15217;DHT22;7711;46.634;14.318;2023-12-14T08:34:03;1.90;99.90
15217;DHT22;7711;46.634;14.318;2023-12-14T08:36:30;2.00;99.90
15217;DHT22;7711;46.634;14.318;2023-12-14T08:38:57;2.00;99.90
15217;DHT22;7711;46.634;14.318;2023-12-14T08:41:25;2.10;99.90
15217;DHT22;7711;46.634;14.318;2023-12-14T08:43:52;2.10;99.90
15217;DHT22;7711;46.634;14.318;2023-12-14T08:46:21;2.20;99.90
15217;DHT22;7711;46.634;14.318;2023-12-14T08:48:48;2.20;99.90
15217;DHT22;7711;46.634;14.318;2023-12-14T08:51:15;2.20;99.90
15217;DHT22;7711;46.634;14.318;2023-12-14T08:53:43;2.20;99.90
15217;DHT22;7711;46.634;14.318;2023-12-14T08:56:10;2.20;99.90
15217;DHT22;7711;46.634;14.318;2023-12-14T08:58:38;2.30;99.90
15217;DHT22;7711;46.634;14.318;2023-12-14T09:01:05;2.30;7.60
15217;DHT22;7711;46.634;14.318;2023-12-14T09:03:32;2.40;64.60
15217;DHT22;7711;46.634;14.318;2023-12-14T09:05:59;2.30;18.10
15217;DHT22;7711;46.634;14.318;2023-12-14T09:08:28;2.40;10.40
15217;DHT22;7711;46.634;14.318;2023-12-14T09:10:55;2.30;1.00
15217;DHT22;7711;46.634;14.318;2023-12-14T09:13:22;2.30;1.00
15217;DHT22;7711;46.634;14.318;2023-12-14T09:15:50;2.20;1.00
15217;DHT22;7711;46.634;14.318;2023-12-14T09:18:19;2.30;1.00
15217;DHT22;7711;46.634;14.318;2023-12-14T09:20:48;2.20;1.00
15217;DHT22;7711;46.634;14.318;2023-12-14T09:23:16;2.20;54.80
15217;DHT22;7711;46.634;14.318;2023-12-14T09:25:44;2.20;59.80
15217;DHT22;7711;46.634;14.318;2023-12-14T09:28:11;2.20;56.70
15217;DHT22;7711;46.634;14.318;2023-12-14T09:30:38;2.30;19.80
15217;DHT22;7711;46.634;14.318;2023-12-14T09:33:07;2.30;3.20
15217;DHT22;7711;46.634;14.318;2023-12-14T09:35:34;2.40;1.00
15217;DHT22;7711;46.634;14.318;2023-12-14T09:38:02;2.20;1.00
15217;DHT22;7711;46.634;14.318;2023-12-14T09:40:29;2.20;24.90
15217;DHT22;7711;46.634;14.318;2023-12-14T09:42:56;2.30;7.40
15217;DHT22;7711;46.634;14.318;2023-12-14T09:45:27;2.10;1.00
15217;DHT22;7711;46.634;14.318;2023-12-14T09:47:54;2.30;1.00
15217;DHT22;7711;46.634;14.318;2023-12-14T09:50:23;2.30;1.00
15217;DHT22;7711;46.634;14.318;2023-12-14T09:52:50;2.30;1.00
15217;DHT22;7711;46.634;14.318;2023-12-14T09:55:17;2.40;1.00
15217;DHT22;7711;46.634;14.318;2023-12-14T09:57:44;2.40;1.00
15217;DHT22;7711;46.634;14.318;2023-12-14T10:00:12;2.50;1.00
15217;DHT22;7711;46.634;14.318;2023-12-14T10:02:41;2.40;1.00
15217;DHT22;7711;46.634;14.318;2023-12-14T10:05:09;2.40;1.00
15217;DHT22;7711;46.634;14.318;2023-12-14T10:07:41;2.40;1.00
15217;DHT22;7711;46.634;14.318;2023-12-14T10:10:13;2.40;1.00
15217;DHT22;7711;46.634;14.318;2023-12-14T10:12:51;2.40;1.00
15217;DHT22;7711;46.634;14.318;2023-12-14T10:15:19;2.50;1.00
15217;DHT22;7711;46.634;14.318;2023-12-14T10:17:51;2.50;1.00
15217;DHT22;7711;46.634;14.318;2023-12-14T10:20:19;2.60;1.00
15217;DHT22;7711;46.634;14.318;2023-12-14T10:22:50;2.30;1.00
15217;DHT22;7711;46.634;14.318;2023-12-14T10:25:18;2.30;1.00
15217;DHT22;7711;46.634;14.318;2023-12-14T10:27:46;2.40;1.00
15217;DHT22;7711;46.634;14.318;2023-12-14T10:30:14;2.40;1.00
15217;DHT22;7711;46.634;14.318;2023-12-14T10:32:41;2.40;1.00
15217;DHT22;7711;46.634;14.318;2023-12-14T10:35:09;2.40;1.00
15217;DHT22;7711;46.634;14.318;2023-12-14T10:37:38;2.40;1.00
15217;DHT22;7711;46.634;14.318;2023-12-14T10:40:08;2.40;1.00
15217;DHT22;7711;46.634;14.318;2023-12-14T10:42:36;2.40;1.00
15217;DHT22;7711;46.634;14.318;2023-12-14T10:45:04;2.40;1.00
15217;DHT22;7711;46.634;14.318;2023-12-14T10:47:32;2.40;1.00
15217;DHT22;7711;46.634;14.318;2023-12-14T10:50:00;2.50;1.00
15217;DHT22;7711;46.634;14.318;2023-12-14T10:52:28;2.50;1.00
15217;DHT22;7711;46.634;14.318;2023-12-14T10:55:00;2.50;1.00
15217;DHT22;7711;46.634;14.318;2023-12-14T10:57:29;2.40;1.00
15217;DHT22;7711;46.634;14.318;2023-12-14T10:59:58;2.50;1.00
15217;DHT22;7711;46.634;14.318;2023-12-14T11:02:25;2.50;1.00
15217;DHT22;7711;46.634;14.318;2023-12-14T11:04:56;2.50;1.00
15217;DHT22;7711;46.634;14.318;2023-12-14T11:07:43;2.50;1.00
15217;DHT22;7711;46.634;14.318;2023-12-14T11:10:11;2.60;1.00
15217;DHT22;7711;46.634;14.318;2023-12-14T11:12:50;2.60;1.00
15217;DHT22;7711;46.634;14.318;2023-12-14T11:15:18;2.70;1.00
15217;DHT22;7711;46.634;14.318;2023-12-14T11:18:22;2.60;1.00
15217;DHT22;7711;46.634;14.318;2023-12-14T11:20:51;2.70;1.00
15217;DHT22;7711;46.634;14.318;2023-12-14T11:23:28;2.80;1.00
15217;DHT22;7711;46.634;14.318;2023-12-14T11:25:58;2.80;1.00
15217;DHT22;7711;46.634;14.318;2023-12-14T11:28:27;2.80;1.00
15217;DHT22;7711;46.634;14.318;2023-12-14T11:30:54;2.70;1.00
15217;DHT22;7711;46.634;14.318;2023-12-14T11:33:22;2.70;1.00
15217;DHT22;7711;46.634;14.318;2023-12-14T11:35:50;2.70;1.00
15217;DHT22;7711;46.634;14.318;2023-12-14T11:38:18;2.80;1.00
15217;DHT22;7711;46.634;14.318;2023-12-14T11:40:46;2.80;1.00
15217;DHT22;7711;46.634;14.318;2023-12-14T11:43:14;2.80;1.00
15217;DHT22;7711;46.634;14.318;2023-12-14T11:45:43;2.80;1.00
15217;DHT22;7711;46.634;14.318;2023-12-14T11:48:12;2.70;1.00
15217;DHT22;7711;46.634;14.318;2023-12-14T11:50:39;2.60;1.00
15217;DHT22;7711;46.634;14.318;2023-12-14T11:53:07;2.60;1.00
15217;DHT22;7711;46.634;14.318;2023-12-14T11:55:37;2.80;1.00
15217;DHT22;7711;46.634;14.318;2023-12-14T11:58:04;2.90;1.00
15217;DHT22;7711;46.634;14.318;2023-12-14T12:00:32;2.80;1.00
15217;DHT22;7711;46.634;14.318;2023-12-14T12:03:11;2.90;1.00
15217;DHT22;7711;46.634;14.318;2023-12-14T12:05:40;2.80;1.00
15217;DHT22;7711;46.634;14.318;2023-12-14T12:08:08;2.90;1.00
15217;DHT22;7711;46.634;14.318;2023-12-14T12:10:36;3.00;1.00
15217;DHT22;7711;46.634;14.318;2023-12-14T12:13:04;2.80;1.00
15217;DHT22;7711;46.634;14.318;2023-12-14T12:15:32;2.80;1.00
15217;DHT22;7711;46.634;14.318;2023-12-14T12:18:03;2.90;1.00
15217;DHT22;7711;46.634;14.318;2023-12-14T12:20:31;2.90;1.00
15217;DHT22;7711;46.634;14.318;2023-12-14T12:22:59;2.90;1.00
15217;DHT22;7711;46.634;14.318;2023-12-14T12:25:26;2.90;1.00
15217;DHT22;7711;46.634;14.318;2023-12-14T12:27:53;2.80;1.00
15217;DHT22;7711;46.634;14.318;2023-12-14T12:30:20;2.70;1.00
15217;DHT22;7711;46.634;14.318;2023-12-14T12:32:48;2.70;1.00
15217;DHT22;7711;46.634;14.318;2023-12-14T12:35:16;2.70;1.00
15217;DHT22;7711;46.634;14.318;2023-12-14T12:37:44;2.60;1.00
15217;DHT22;7711;46.634;14.318;2023-12-14T12:40:12;2.60;1.00
15217;DHT22;7711;46.634;14.318;2023-12-14T12:42:41;2.60;1.00
15217;DHT22;7711;46.634;14.318;2023-12-14T12:45:09;2.50;1.00
15217;DHT22;7711;46.634;14.318;2023-12-14T12:47:37;2.50;1.00
15217;DHT22;7711;46.634;14.318;2023-12-14T12:50:05;2.50;1.00
15217;DHT22;7711;46.634;14.318;2023-12-14T12:52:32;2.50;1.00
15217;DHT22;7711;46.634;14.318;2023-12-14T12:55:01;2.50;1.00
15217;DHT22;7711;46.634;14.318;2023-12-14T12:57:28;2.50;1.00
15217;DHT22;7711;46.634;14.318;2023-12-14T12:59:55;2.40;1.00
15217;DHT22;7711;46.634;14.318;2023-12-14T13:02:21;2.40;1.00
15217;DHT22;7711;46.634;14.318;2023-12-14T13:04:49;2.50;1.00
15217;DHT22;7711;46.634;14.318;2023-12-14T13:07:15;2.50;1.00
15217;DHT22;7711;46.634;14.318;2023-12-14T13:09:44;2.60;1.00
15217;DHT22;7711;46.634;14.318;2023-12-14T13:12:12;2.60;1.00
15217;DHT22;7711;46.634;14.318;2023-12-14T13:14:40;2.60;1.00
15217;DHT22;7711;46.634;14.318;2023-12-14T13:17:07;2.70;1.00
15217;DHT22;7711;46.634;14.318;2023-12-14T13:19:34;2.50;1.00
15217;DHT22;7711;46.634;14.318;2023-12-14T13:22:00;2.60;1.00
15217;DHT22;7711;46.634;14.318;2023-12-14T13:24:28;2.60;1.00
15217;DHT22;7711;46.634;14.318;2023-12-14T13:26:55;2.60;1.00
15217;DHT22;7711;46.634;14.318;2023-12-14T13:29:23;2.60;1.00
15217;DHT22;7711;46.634;14.318;2023-12-14T13:31:50;2.60;1.00
15217;DHT22;7711;46.634;14.318;2023-12-14T13:34:17;2.70;1.00
15217;DHT22;7711;46.634;14.318;2023-12-14T13:36:44;2.70;1.00
15217;DHT22;7711;46.634;14.318;2023-12-14T13:39:11;2.70;1.00
15217;DHT22;7711;46.634;14.318;2023-12-14T13:41:38;2.60;1.00
15217;DHT22;7711;46.634;14.318;2023-12-14T13:44:05;2.50;1.00
15217;DHT22;7711;46.634;14.318;2023-12-14T13:46:33;2.40;1.00
15217;DHT22;7711;46.634;14.318;2023-12-14T13:49:00;2.40;1.00
15217;DHT22;7711;46.634;14.318;2023-12-14T13:51:28;2.40;15.10
15217;DHT22;7711;46.634;14.318;2023-12-14T13:53:55;2.30;76.10
15217;DHT22;7711;46.634;14.318;2023-12-14T13:56:22;2.40;99.90
15217;DHT22;7711;46.634;14.318;2023-12-14T13:58:49;2.50;99.90
15217;DHT22;7711;46.634;14.318;2023-12-14T14:01:16;2.50;99.90
15217;DHT22;7711;46.634;14.318;2023-12-14T14:03:45;2.60;1.00
15217;DHT22;7711;46.634;14.318;2023-12-14T14:06:13;2.50;1.00
15217;DHT22;7711;46.634;14.318;2023-12-14T14:08:40;2.50;61.90
15217;DHT22;7711;46.634;14.318;2023-12-14T14:11:07;2.40;99.90
15217;DHT22;7711;46.634;14.318;2023-12-14T14:13:34;2.50;99.90
15217;DHT22;7711;46.634;14.318;2023-12-14T14:16:01;2.50;99.90
15217;DHT22;7711;46.634;14.318;2023-12-14T14:18:28;2.50;99.90
15217;DHT22;7711;46.634;14.318;2023-12-14T14:20:56;2.50;90.20
15217;DHT22;7711;46.634;14.318;2023-12-14T14:23:24;2.50;99.90
15217;DHT22;7711;46.634;14.318;2023-12-14T14:25:52;2.60;99.90
15217;DHT22;7711;46.634;14.318;2023-12-14T14:28:20;2.70;99.90
15217;DHT22;7711;46.634;14.318;2023-12-14T14:30:47;2.60;99.90
15217;DHT22;7711;46.634;14.318;2023-12-14T14:33:14;2.60;60.20
15217;DHT22;7711;46.634;14.318;2023-12-14T14:35:43;2.50;87.30
15217;DHT22;7711;46.634;14.318;2023-12-14T14:38:12;2.50;99.90
15217;DHT22;7711;46.634;14.318;2023-12-14T14:40:39;2.50;99.90
15217;DHT22;7711;46.634;14.318;2023-12-14T14:43:07;2.40;99.90
15217;DHT22;7711;46.634;14.318;2023-12-14T14:45:35;2.30;99.90
15217;DHT22;7711;46.634;14.318;2023-12-14T14:48:03;2.30;99.90
15217;DHT22;7711;46.634;14.318;2023-12-14T14:50:33;2.30;99.90
15217;DHT22;7711;46.634;14.318;2023-12-14T14:53:00;2.30;99.90
15217;DHT22;7711;46.634;14.318;2023-12-14T14:55:29;2.20;99.90
15217;DHT22;7711;46.634;14.318;2023-12-14T14:57:56;2.20;99.90
15217;DHT22;7711;46.634;14.318;2023-12-14T15:00:23;2.10;1.00
15217;DHT22;7711;46.634;14.318;2023-12-14T15:02:51;2.20;1.00
15217;DHT22;7711;46.634;14.318;2023-12-14T15:05:18;2.20;99.90
15217;DHT22;7711;46.634;14.318;2023-12-14T15:07:45;2.20;99.90
15217;DHT22;7711;46.634;14.318;2023-12-14T15:10:12;2.20;1.00
15217;DHT22;7711;46.634;14.318;2023-12-14T15:12:41;2.20;1.00
15217;DHT22;7711;46.634;14.318;2023-12-14T15:15:08;2.20;1.00
15217;DHT22;7711;46.634;14.318;2023-12-14T15:17:36;2.20;1.00
15217;DHT22;7711;46.634;14.318;2023-12-14T15:20:04;2.20;1.00
15217;DHT22;7711;46.634;14.318;2023-12-14T15:22:32;2.20;1.00
15217;DHT22;7711;46.634;14.318;2023-12-14T15:24:59;2.20;1.00
15217;DHT22;7711;46.634;14.318;2023-12-14T15:27:26;2.20;1.00
15217;DHT22;7711;46.634;14.318;2023-12-14T15:29:55;2.20;1.00
15217;DHT22;7711;46.634;14.318;2023-12-14T15:32:22;2.20;1.00
15217;DHT22;7711;46.634;14.318;2023-12-14T15:34:49;2.10;1.00
15217;DHT22;7711;46.634;14.318;2023-12-14T15:37:16;2.10;1.00
15217;DHT22;7711;46.634;14.318;2023-12-14T15:39:44;2.10;1.00
15217;DHT22;7711;46.634;14.318;2023-12-14T15:42:14;2.10;1.00
15217;DHT22;7711;46.634;14.318;2023-12-14T15:44:41;2.10;1.00
15217;DHT22;7711;46.634;14.318;2023-12-14T15:47:11;2.10;1.00
15217;DHT22;7711;46.634;14.318;2023-12-14T15:49:41;2.10;1.00
15217;DHT22;7711;46.634;14.318;2023-12-14T15:52:08;2.20;1.00
15217;DHT22;7711;46.634;14.318;2023-12-14T15:54:35;2.10;1.00